sensor_id;sensor_type;location;lat;lon;timestamp;pressure;altitude;pressure_sealevel;temperature;humidity
25610;BME280;13479;49.044;8.716;2023-01-29T05:01:36;100138.00;;;0.84;59.51
25610;BME280;13479;49.044;8.716;2023-01-29T05:04:07;100079.56;;;0.85;59.86
25610;BME280;13479;49.044;8.716;2023-01-29T05:06:36;100061.38;;;0.82;59.83
25610;BME280;13479;49.044;8.716;2023-01-29T05:09:02;100030.97;;;0.78;60.49
25610;BME280;13479;49.044;8.716;2023-01-29T05:11:29;100039.78;;;0.75;60.31
25610;BME280;13479;49.044;8.716;2023-01-29T05:13:57;100048.44;;;0.77;59.82
25610;BME280;13479;49.044;8.716;2023-01-29T05:16:25;100084.78;;;0.85;59.16
25610;BME280;13479;49.044;8.716;2023-01-29T05:18:52;100073.97;;;0.68;60.37
25610;BME280;13479;49.044;8.716;2023-01-29T05:23:45;100011.50;;;0.58;59.95
25610;BME280;13479;49.044;8.716;2023-01-29T05:26:23;100021.88;;;0.61;59.82
25610;BME280;13479;49.044;8.716;2023-01-29T05:29:07;100025.19;;;0.67;59.45
25610;BME280;13479;49.044;8.716;2023-01-29T05:31:32;100034.81;;;0.66;59.32
25610;BME280;13479;49.044;8.716;2023-01-29T05:33:57;100053.34;;;0.57;59.49
25610;BME280;13479;49.044;8.716;2023-01-29T05:36:22;100056.19;;;0.49;59.56
25610;BME280;13479;49.044;8.716;2023-01-29T05:38:49;100056.34;;;0.43;59.61
25610;BME280;13479;49.044;8.716;2023-01-29T05:41:14;100051.75;;;0.51;59.68
25610;BME280;13479;49.044;8.716;2023-01-29T05:43:41;100050.19;;;0.45;60.07
25610;BME280;13479;49.044;8.716;2023-01-29T05:46:06;100027.69;;;0.40;60.07
25610;BME280;13479;49.044;8.716;2023-01-29T05:48:31;100003.47;;;0.35;60.02
25610;BME280;13479;49.044;8.716;2023-01-29T05:51:00;99992.06;;;0.37;60.47
25610;BME280;13479;49.044;8.716;2023-01-29T05:53:28;99986.81;;;0.39;60.29
25610;BME280;13479;49.044;8.716;2023-01-29T05:55:53;99968.41;;;0.42;59.92
25610;BME280;13479;49.044;8.716;2023-01-29T05:58:21;99963.94;;;0.47;60.24
25610;BME280;13479;49.044;8.716;2023-01-29T06:00:47;99961.25;;;0.50;60.52
25610;BME280;13479;49.044;8.716;2023-01-29T06:03:12;99970.06;;;0.46;60.46
25610;BME280;13479;49.044;8.716;2023-01-29T06:05:38;99961.47;;;0.41;60.65
25610;BME280;13479;49.044;8.716;2023-01-29T06:08:04;99947.78;;;0.63;59.89
25610;BME280;13479;49.044;8.716;2023-01-29T06:10:29;99968.69;;;0.63;60.16
25610;BME280;13479;49.044;8.716;2023-01-29T06:12:54;99987.78;;;0.65;60.17
25610;BME280;13479;49.044;8.716;2023-01-29T06:15:19;100002.84;;;0.56;59.83
25610;BME280;13479;49.044;8.716;2023-01-29T06:17:45;99987.44;;;0.47;60.47
25610;BME280;13479;49.044;8.716;2023-01-29T06:20:10;99965.72;;;0.45;60.62
25610;BME280;13479;49.044;8.716;2023-01-29T06:22:36;99931.84;;;0.42;61.12
25610;BME280;13479;49.044;8.716;2023-01-29T06:25:01;99889.22;;;0.40;61.46
25610;BME280;13479;49.044;8.716;2023-01-29T06:27:26;99867.34;;;0.44;61.77
25610;BME280;13479;49.044;8.716;2023-01-29T06:29:52;99842.94;;;0.45;62.19
25610;BME280;13479;49.044;8.716;2023-01-29T06:32:17;99835.53;;;0.59;61.42
25610;BME280;13479;49.044;8.716;2023-01-29T06:34:42;99899.56;;;0.73;60.06
25610;BME280;13479;49.044;8.716;2023-01-29T06:37:07;99941.66;;;0.64;60.60
25610;BME280;13479;49.044;8.716;2023-01-29T06:39:33;99976.34;;;0.69;60.21
25610;BME280;13479;49.044;8.716;2023-01-29T06:41:58;100015.72;;;0.63;59.84
25610;BME280;13479;49.044;8.716;2023-01-29T06:44:23;100024.56;;;0.58;60.08
25610;BME280;13479;49.044;8.716;2023-01-29T06:46:49;100021.06;;;0.59;60.16
25610;BME280;13479;49.044;8.716;2023-01-29T06:49:14;100020.31;;;0.54;60.25
25610;BME280;13479;49.044;8.716;2023-01-29T06:51:39;99990.75;;;0.52;60.55
25610;BME280;13479;49.044;8.716;2023-01-29T06:54:05;99969.09;;;0.49;60.76
25610;BME280;13479;49.044;8.716;2023-01-29T06:56:32;99967.38;;;0.49;60.44
25610;BME280;13479;49.044;8.716;2023-01-29T06:58:58;99979.41;;;0.53;60.20
25610;BME280;13479;49.044;8.716;2023-01-29T07:01:24;99993.06;;;0.63;60.07
25610;BME280;13479;49.044;8.716;2023-01-29T07:03:49;100016.66;;;0.61;60.18
25610;BME280;13479;49.044;8.716;2023-01-29T07:06:15;100043.03;;;0.52;60.26
25610;BME280;13479;49.044;8.716;2023-01-29T07:08:41;100050.72;;;0.58;59.95
25610;BME280;13479;49.044;8.716;2023-01-29T07:11:06;100060.44;;;0.53;59.73
25610;BME280;13479;49.044;8.716;2023-01-29T07:13:32;100065.75;;;0.50;59.85
25610;BME280;13479;49.044;8.716;2023-01-29T07:15:59;100052.03;;;0.42;60.31
25610;BME280;13479;49.044;8.716;2023-01-29T07:18:25;100060.41;;;0.55;60.17
25610;BME280;13479;49.044;8.716;2023-01-29T07:20:50;100063.84;;;0.55;59.71
25610;BME280;13479;49.044;8.716;2023-01-29T07:23:16;100067.44;;;0.51;59.84
25610;BME280;13479;49.044;8.716;2023-01-29T07:25:42;100089.66;;;0.68;59.43
25610;BME280;13479;49.044;8.716;2023-01-29T07:28:08;100112.28;;;0.69;59.21
25610;BME280;13479;49.044;8.716;2023-01-29T07:30:33;100134.03;;;0.69;59.08
25610;BME280;13479;49.044;8.716;2023-01-29T07:33:03;100140.06;;;0.73;59.23
25610;BME280;13479;49.044;8.716;2023-01-29T07:35:29;100121.66;;;0.76;59.44
25610;BME280;13479;49.044;8.716;2023-01-29T07:37:55;100172.09;;;1.11;57.95
25610;BME280;13479;49.044;8.716;2023-01-29T07:40:20;100229.91;;;1.02;57.77
25610;BME280;13479;49.044;8.716;2023-01-29T07:42:45;100232.56;;;1.00;57.64
25610;BME280;13479;49.044;8.716;2023-01-29T07:45:11;100226.53;;;0.98;58.58
25610;BME280;13479;49.044;8.716;2023-01-29T07:47:36;100234.09;;;1.07;58.17
25610;BME280;13479;49.044;8.716;2023-01-29T07:50:02;100237.34;;;1.16;57.91
25610;BME280;13479;49.044;8.716;2023-01-29T07:52:29;100253.81;;;1.19;57.56
25610;BME280;13479;49.044;8.716;2023-01-29T07:54:55;100247.66;;;1.22;57.79
25610;BME280;13479;49.044;8.716;2023-01-29T07:57:21;100238.94;;;1.21;58.13
25610;BME280;13479;49.044;8.716;2023-01-29T07:59:46;100248.19;;;1.35;57.29
25610;BME280;13479;49.044;8.716;2023-01-29T08:02:11;100262.00;;;1.40;57.09
25610;BME280;13479;49.044;8.716;2023-01-29T08:04:36;100271.44;;;1.46;56.32
25610;BME280;13479;49.044;8.716;2023-01-29T08:07:02;100265.50;;;1.39;56.83
25610;BME280;13479;49.044;8.716;2023-01-29T08:09:28;100254.94;;;1.42;56.90
25610;BME280;13479;49.044;8.716;2023-01-29T08:11:54;100230.81;;;1.32;56.81
25610;BME280;13479;49.044;8.716;2023-01-29T08:14:19;100220.22;;;1.37;57.18
25610;BME280;13479;49.044;8.716;2023-01-29T08:16:44;100216.50;;;1.44;56.66
25610;BME280;13479;49.044;8.716;2023-01-29T08:19:09;100223.41;;;1.47;57.25
25610;BME280;13479;49.044;8.716;2023-01-29T08:21:35;100227.50;;;1.57;56.48
25610;BME280;13479;49.044;8.716;2023-01-29T08:24:00;100244.72;;;1.64;56.86
25610;BME280;13479;49.044;8.716;2023-01-29T08:26:25;100258.41;;;1.74;56.45
25610;BME280;13479;49.044;8.716;2023-01-29T08:28:51;100265.78;;;1.90;55.86
25610;BME280;13479;49.044;8.716;2023-01-29T08:31:18;100262.19;;;1.94;55.54
25610;BME280;13479;49.044;8.716;2023-01-29T08:33:47;100263.88;;;1.95;55.39
25610;BME280;13479;49.044;8.716;2023-01-29T08:36:13;100251.72;;;1.92;55.77
25610;BME280;13479;49.044;8.716;2023-01-29T08:38:39;100256.03;;;1.95;55.23
25610;BME280;13479;49.044;8.716;2023-01-29T08:41:05;100247.34;;;1.93;55.37
25610;BME280;13479;49.044;8.716;2023-01-29T08:43:30;100236.66;;;2.00;55.04
25610;BME280;13479;49.044;8.716;2023-01-29T08:45:56;100239.72;;;2.13;55.65
25610;BME280;13479;49.044;8.716;2023-01-29T08:48:21;100241.97;;;2.26;54.91
25610;BME280;13479;49.044;8.716;2023-01-29T08:50:47;100260.56;;;2.45;54.25
25610;BME280;13479;49.044;8.716;2023-01-29T08:53:12;100256.09;;;2.75;53.82
25610;BME280;13479;49.044;8.716;2023-01-29T08:55:38;100258.81;;;2.98;53.46
25610;BME280;13479;49.044;8.716;2023-01-29T08:58:05;100256.16;;;3.23;52.20
25610;BME280;13479;49.044;8.716;2023-01-29T09:00:32;100260.34;;;3.52;51.69
25610;BME280;13479;49.044;8.716;2023-01-29T09:02:57;100261.41;;;3.94;51.13
25610;BME280;13479;49.044;8.716;2023-01-29T09:05:24;100257.94;;;4.38;50.64
25610;BME280;13479;49.044;8.716;2023-01-29T09:07:49;100271.28;;;4.97;49.19
25610;BME280;13479;49.044;8.716;2023-01-29T09:10:14;100272.66;;;5.26;48.29
25610;BME280;13479;49.044;8.716;2023-01-29T09:12:40;100290.66;;;5.56;47.40
25610;BME280;13479;49.044;8.716;2023-01-29T09:15:05;100287.66;;;5.83;46.60
25610;BME280;13479;49.044;8.716;2023-01-29T09:17:31;100297.16;;;6.26;46.33
25610;BME280;13479;49.044;8.716;2023-01-29T09:19:56;100305.31;;;6.58;45.34
25610;BME280;13479;49.044;8.716;2023-01-29T09:22:22;100314.19;;;7.09;44.33
25610;BME280;13479;49.044;8.716;2023-01-29T09:24:47;100305.47;;;7.25;44.18
25610;BME280;13479;49.044;8.716;2023-01-29T09:27:13;100312.94;;;7.34;42.47
25610;BME280;13479;49.044;8.716;2023-01-29T09:29:38;100306.38;;;7.41;42.55
25610;BME280;13479;49.044;8.716;2023-01-29T09:32:04;100299.88;;;7.31;42.19
25610;BME280;13479;49.044;8.716;2023-01-29T09:34:29;100287.75;;;7.27;42.09
25610;BME280;13479;49.044;8.716;2023-01-29T09:36:54;100265.91;;;7.23;41.93
25610;BME280;13479;49.044;8.716;2023-01-29T09:39:19;100263.78;;;7.48;40.98
25610;BME280;13479;49.044;8.716;2023-01-29T09:44:50;100256.38;;;7.21;41.09
25610;BME280;13479;49.044;8.716;2023-01-29T09:47:17;100248.31;;;7.06;41.66
25610;BME280;13479;49.044;8.716;2023-01-29T09:49:55;100259.81;;;7.05;41.00
25610;BME280;13479;49.044;8.716;2023-01-29T09:52:32;100243.50;;;6.62;41.94
25610;BME280;13479;49.044;8.716;2023-01-29T09:55:11;100221.63;;;6.42;42.67
25610;BME280;13479;49.044;8.716;2023-01-29T09:57:54;100213.72;;;6.42;42.03
25610;BME280;13479;49.044;8.716;2023-01-29T10:03:23;100197.09;;;6.23;42.83
25610;BME280;13479;49.044;8.716;2023-01-29T10:08:33;100147.66;;;6.09;44.07
25610;BME280;13479;49.044;8.716;2023-01-29T10:13:51;100125.22;;;6.19;43.44
25610;BME280;13479;49.044;8.716;2023-01-29T10:16:46;100124.78;;;6.62;43.23
25610;BME280;13479;49.044;8.716;2023-01-29T10:22:41;100159.84;;;6.64;42.74
25610;BME280;13479;49.044;8.716;2023-01-29T10:25:13;100175.84;;;6.78;42.75
25610;BME280;13479;49.044;8.716;2023-01-29T10:27:41;100218.22;;;6.75;42.46
25610;BME280;13479;49.044;8.716;2023-01-29T10:30:32;100221.16;;;6.52;43.00
25610;BME280;13479;49.044;8.716;2023-01-29T10:33:02;100181.09;;;6.08;44.08
25610;BME280;13479;49.044;8.716;2023-01-29T10:35:40;100146.78;;;5.91;45.12
25610;BME280;13479;49.044;8.716;2023-01-29T10:43:47;100099.41;;;5.52;45.22
25610;BME280;13479;49.044;8.716;2023-01-29T10:46:24;100079.97;;;5.36;45.73
25610;BME280;13479;49.044;8.716;2023-01-29T11:01:47;100016.91;;;4.96;46.88
25610;BME280;13479;49.044;8.716;2023-01-29T11:04:13;100022.47;;;4.90;47.33
25610;BME280;13479;49.044;8.716;2023-01-29T11:06:38;100012.44;;;4.98;47.25
25610;BME280;13479;49.044;8.716;2023-01-29T11:09:05;99998.06;;;5.05;47.15
25610;BME280;13479;49.044;8.716;2023-01-29T11:11:43;99985.50;;;4.93;47.36
25610;BME280;13479;49.044;8.716;2023-01-29T11:14:41;99985.34;;;4.77;47.68
25610;BME280;13479;49.044;8.716;2023-01-29T11:17:17;99974.09;;;4.73;48.45
25610;BME280;13479;49.044;8.716;2023-01-29T11:19:44;99962.44;;;4.79;48.21
25610;BME280;13479;49.044;8.716;2023-01-29T11:22:16;99959.31;;;4.90;47.71
25610;BME280;13479;49.044;8.716;2023-01-29T11:24:42;99955.66;;;4.92;47.84
25610;BME280;13479;49.044;8.716;2023-01-29T11:27:22;99953.72;;;5.15;48.29
25610;BME280;13479;49.044;8.716;2023-01-29T11:29:48;99963.53;;;5.66;47.31
25610;BME280;13479;49.044;8.716;2023-01-29T11:32:25;99995.50;;;6.28;46.05
25610;BME280;13479;49.044;8.716;2023-01-29T11:34:56;100083.06;;;6.86;44.71
25610;BME280;13479;49.044;8.716;2023-01-29T11:37:21;100125.66;;;7.12;43.82
25610;BME280;13479;49.044;8.716;2023-01-29T11:39:47;100137.63;;;7.35;44.11
25610;BME280;13479;49.044;8.716;2023-01-29T11:42:21;100160.91;;;7.61;42.67
25610;BME280;13479;49.044;8.716;2023-01-29T11:44:47;100160.97;;;7.43;42.61
25610;BME280;13479;49.044;8.716;2023-01-29T11:47:26;100168.72;;;7.30;43.25
25610;BME280;13479;49.044;8.716;2023-01-29T11:49:56;100142.53;;;7.09;43.62
25610;BME280;13479;49.044;8.716;2023-01-29T11:52:25;100147.81;;;7.09;43.64
25610;BME280;13479;49.044;8.716;2023-01-29T11:54:56;100134.47;;;6.95;43.99
25610;BME280;13479;49.044;8.716;2023-01-29T12:00:04;100132.53;;;6.65;44.03
25610;BME280;13479;49.044;8.716;2023-01-29T12:03:05;100117.19;;;6.56;44.59
25610;BME280;13479;49.044;8.716;2023-01-29T12:05:24;100082.34;;;6.31;44.98
25610;BME280;13479;49.044;8.716;2023-01-29T12:07:55;100061.97;;;6.35;45.00
25610;BME280;13479;49.044;8.716;2023-01-29T12:10:36;100048.00;;;6.33;44.70
25610;BME280;13479;49.044;8.716;2023-01-29T12:15:33;99997.59;;;6.22;45.57
25610;BME280;13479;49.044;8.716;2023-01-29T12:18:22;100012.09;;;6.30;44.31
25610;BME280;13479;49.044;8.716;2023-01-29T12:20:49;100015.34;;;6.36;44.99
25610;BME280;13479;49.044;8.716;2023-01-29T12:26:09;99989.66;;;6.39;44.48
25610;BME280;13479;49.044;8.716;2023-01-29T12:31:41;99995.56;;;6.27;44.57
25610;BME280;13479;49.044;8.716;2023-01-29T12:34:19;99984.91;;;6.12;45.11
25610;BME280;13479;49.044;8.716;2023-01-29T12:36:54;99950.44;;;6.15;45.30
25610;BME280;13479;49.044;8.716;2023-01-29T12:39:21;99918.47;;;6.06;45.88
25610;BME280;13479;49.044;8.716;2023-01-29T12:41:59;99905.97;;;6.09;45.49
25610;BME280;13479;49.044;8.716;2023-01-29T12:44:35;99903.00;;;6.15;44.99
25610;BME280;13479;49.044;8.716;2023-01-29T12:47:09;99916.66;;;6.06;44.77
25610;BME280;13479;49.044;8.716;2023-01-29T12:49:37;99903.25;;;5.93;45.61
25610;BME280;13479;49.044;8.716;2023-01-29T12:52:13;99885.75;;;5.92;45.72
25610;BME280;13479;49.044;8.716;2023-01-29T12:54:53;99866.91;;;5.82;46.90
25610;BME280;13479;49.044;8.716;2023-01-29T12:57:24;99856.56;;;5.79;46.02
25610;BME280;13479;49.044;8.716;2023-01-29T12:59:57;99852.97;;;5.80;45.89
25610;BME280;13479;49.044;8.716;2023-01-29T13:02:39;99854.09;;;5.76;45.90
25610;BME280;13479;49.044;8.716;2023-01-29T13:05:23;99836.81;;;5.70;46.33
25610;BME280;13479;49.044;8.716;2023-01-29T13:07:53;99822.31;;;5.79;46.80
25610;BME280;13479;49.044;8.716;2023-01-29T13:10:30;99830.72;;;5.86;46.25
25610;BME280;13479;49.044;8.716;2023-01-29T13:13:03;99841.34;;;5.84;46.26
25610;BME280;13479;49.044;8.716;2023-01-29T13:15:35;99844.06;;;5.83;46.12
25610;BME280;13479;49.044;8.716;2023-01-29T13:21:12;99833.00;;;5.76;46.53
25610;BME280;13479;49.044;8.716;2023-01-29T13:23:43;99833.94;;;5.75;46.72
25610;BME280;13479;49.044;8.716;2023-01-29T13:26:11;99863.41;;;5.66;45.90
25610;BME280;13479;49.044;8.716;2023-01-29T13:28:38;99857.66;;;5.57;47.06
25610;BME280;13479;49.044;8.716;2023-01-29T13:31:34;99845.31;;;5.42;46.44
25610;BME280;13479;49.044;8.716;2023-01-29T13:34:14;99824.16;;;5.44;47.08
25610;BME280;13479;49.044;8.716;2023-01-29T13:36:44;99811.66;;;5.47;46.96
25610;BME280;13479;49.044;8.716;2023-01-29T13:39:39;99824.09;;;5.45;47.12
25610;BME280;13479;49.044;8.716;2023-01-29T13:42:21;99839.56;;;5.51;46.57
25610;BME280;13479;49.044;8.716;2023-01-29T13:44:53;99825.13;;;5.59;46.72
25610;BME280;13479;49.044;8.716;2023-01-29T13:47:28;99821.75;;;5.56;46.90
25610;BME280;13479;49.044;8.716;2023-01-29T13:49:58;99814.97;;;5.68;47.05
25610;BME280;13479;49.044;8.716;2023-01-29T13:52:38;99831.53;;;5.70;46.84
25610;BME280;13479;49.044;8.716;2023-01-29T14:00:04;99816.59;;;5.37;47.78
25610;BME280;13479;49.044;8.716;2023-01-29T14:02:30;99797.00;;;5.25;47.76
25610;BME280;13479;49.044;8.716;2023-01-29T14:10:24;99778.75;;;5.05;48.18
25610;BME280;13479;49.044;8.716;2023-01-29T14:12:51;99759.84;;;4.79;48.75
25610;BME280;13479;49.044;8.716;2023-01-29T14:15:20;99754.13;;;4.71;48.31
25610;BME280;13479;49.044;8.716;2023-01-29T14:18:28;99736.81;;;4.67;49.00
25610;BME280;13479;49.044;8.716;2023-01-29T14:23:29;99722.63;;;4.52;49.16
25610;BME280;13479;49.044;8.716;2023-01-29T14:26:03;99720.78;;;4.36;49.53
25610;BME280;13479;49.044;8.716;2023-01-29T14:28:31;99723.78;;;4.28;49.29
25610;BME280;13479;49.044;8.716;2023-01-29T14:30:58;99715.94;;;4.09;50.11
25610;BME280;13479;49.044;8.716;2023-01-29T14:33:37;99702.13;;;3.86;50.44
25610;BME280;13479;49.044;8.716;2023-01-29T14:36:08;99709.16;;;3.86;50.29
25610;BME280;13479;49.044;8.716;2023-01-29T14:38:35;99714.44;;;3.67;50.52
25610;BME280;13479;49.044;8.716;2023-01-29T14:41:06;99709.31;;;3.45;50.61
25610;BME280;13479;49.044;8.716;2023-01-29T14:43:33;99703.91;;;3.48;50.91
25610;BME280;13479;49.044;8.716;2023-01-29T14:48:59;99690.56;;;3.33;51.76
25610;BME280;13479;49.044;8.716;2023-01-29T14:51:25;99702.63;;;3.37;51.69
25610;BME280;13479;49.044;8.716;2023-01-29T14:54:00;99697.03;;;3.26;51.59
25610;BME280;13479;49.044;8.716;2023-01-29T14:56:45;99692.69;;;3.25;51.84
25610;BME280;13479;49.044;8.716;2023-01-29T15:01:54;99677.78;;;3.06;52.48
25610;BME280;13479;49.044;8.716;2023-01-29T15:04:25;99682.03;;;3.09;52.72
25610;BME280;13479;49.044;8.716;2023-01-29T15:07:00;99691.81;;;3.05;52.46
25610;BME280;13479;49.044;8.716;2023-01-29T15:09:37;99687.41;;;3.06;52.89
25610;BME280;13479;49.044;8.716;2023-01-29T15:12:24;99700.28;;;3.12;52.69
25610;BME280;13479;49.044;8.716;2023-01-29T15:17:27;99698.91;;;3.03;52.41
25610;BME280;13479;49.044;8.716;2023-01-29T15:19:54;99706.25;;;2.95;52.71
25610;BME280;13479;49.044;8.716;2023-01-29T15:22:22;99696.19;;;2.86;53.55
25610;BME280;13479;49.044;8.716;2023-01-29T15:25:13;99692.97;;;2.79;53.54
25610;BME280;13479;49.044;8.716;2023-01-29T15:27:45;99695.13;;;2.69;54.04
25610;BME280;13479;49.044;8.716;2023-01-29T15:30:17;99682.41;;;2.60;54.47
25610;BME280;13479;49.044;8.716;2023-01-29T15:32:43;99665.28;;;2.51;54.65
25610;BME280;13479;49.044;8.716;2023-01-29T15:37:43;99669.03;;;2.45;54.62
25610;BME280;13479;49.044;8.716;2023-01-29T15:40:21;99663.16;;;2.40;54.79
25610;BME280;13479;49.044;8.716;2023-01-29T15:42:47;99650.03;;;2.40;54.84
25610;BME280;13479;49.044;8.716;2023-01-29T15:45:27;99659.06;;;2.33;55.02
25610;BME280;13479;49.044;8.716;2023-01-29T15:47:58;99647.44;;;2.18;55.39
25610;BME280;13479;49.044;8.716;2023-01-29T15:50:25;99647.38;;;2.20;55.95
25610;BME280;13479;49.044;8.716;2023-01-29T15:52:52;99652.34;;;2.05;56.00
25610;BME280;13479;49.044;8.716;2023-01-29T15:55:20;99647.69;;;1.91;56.00
25610;BME280;13479;49.044;8.716;2023-01-29T15:57:47;99640.19;;;1.82;56.42
25610;BME280;13479;49.044;8.716;2023-01-29T16:00:21;99637.63;;;1.80;57.20
25610;BME280;13479;49.044;8.716;2023-01-29T16:02:48;99634.53;;;1.70;56.87
25610;BME280;13479;49.044;8.716;2023-01-29T16:05:16;99636.84;;;1.56;57.17
25610;BME280;13479;49.044;8.716;2023-01-29T16:07:43;99638.56;;;1.57;57.47
25610;BME280;13479;49.044;8.716;2023-01-29T16:12:42;99647.16;;;1.37;57.44
25610;BME280;13479;49.044;8.716;2023-01-29T16:15:19;99646.47;;;1.32;57.73
25610;BME280;13479;49.044;8.716;2023-01-29T16:17:45;99653.78;;;1.23;58.17
25610;BME280;13479;49.044;8.716;2023-01-29T16:20:42;99654.16;;;1.13;58.06
25610;BME280;13479;49.044;8.716;2023-01-29T16:23:17;99647.72;;;0.98;58.23
25610;BME280;13479;49.044;8.716;2023-01-29T16:25:43;99646.44;;;0.86;58.70
25610;BME280;13479;49.044;8.716;2023-01-29T16:28:08;99651.94;;;0.78;59.48
25610;BME280;13479;49.044;8.716;2023-01-29T16:30:36;99653.00;;;0.72;59.17
25610;BME280;13479;49.044;8.716;2023-01-29T16:33:03;99637.56;;;0.66;59.51
25610;BME280;13479;49.044;8.716;2023-01-29T16:35:30;99642.16;;;0.58;60.02
25610;BME280;13479;49.044;8.716;2023-01-29T16:38:00;99637.91;;;0.55;60.24
25610;BME280;13479;49.044;8.716;2023-01-29T16:40:34;99640.84;;;0.46;60.85
25610;BME280;13479;49.044;8.716;2023-01-29T16:45:41;99634.56;;;0.26;60.90
25610;BME280;13479;49.044;8.716;2023-01-29T16:48:29;99638.16;;;0.22;60.99
25610;BME280;13479;49.044;8.716;2023-01-29T16:51:13;99634.00;;;0.17;61.54
25610;BME280;13479;49.044;8.716;2023-01-29T16:53:39;99627.06;;;0.15;62.04
25610;BME280;13479;49.044;8.716;2023-01-29T16:56:07;99623.00;;;0.34;62.09
25610;BME280;13479;49.044;8.716;2023-01-29T16:58:33;99625.66;;;0.32;62.38
25610;BME280;13479;49.044;8.716;2023-01-29T17:01:09;99626.00;;;0.21;62.44
25610;BME280;13479;49.044;8.716;2023-01-29T17:03:36;99627.28;;;0.09;62.76
25610;BME280;13479;49.044;8.716;2023-01-29T17:06:12;99623.53;;;-0.09;63.35
25610;BME280;13479;49.044;8.716;2023-01-29T17:08:43;99608.81;;;-0.11;63.68
25610;BME280;13479;49.044;8.716;2023-01-29T17:11:08;99611.72;;;-0.21;63.92
25610;BME280;13479;49.044;8.716;2023-01-29T17:13:41;99607.41;;;-0.22;64.21
25610;BME280;13479;49.044;8.716;2023-01-29T17:16:30;99611.97;;;-0.28;64.44
25610;BME280;13479;49.044;8.716;2023-01-29T17:18:57;99608.25;;;-0.21;64.59
25610;BME280;13479;49.044;8.716;2023-01-29T17:21:23;99616.34;;;-0.29;65.06
25610;BME280;13479;49.044;8.716;2023-01-29T17:23:49;99603.34;;;-0.30;65.76
25610;BME280;13479;49.044;8.716;2023-01-29T17:26:14;99608.88;;;-0.40;65.76
25610;BME280;13479;49.044;8.716;2023-01-29T17:28:40;99611.78;;;-0.51;66.04
25610;BME280;13479;49.044;8.716;2023-01-29T17:31:06;99604.41;;;-0.65;66.71
25610;BME280;13479;49.044;8.716;2023-01-29T17:33:32;99604.50;;;-0.68;67.03
25610;BME280;13479;49.044;8.716;2023-01-29T17:35:58;99606.28;;;-0.70;67.02
25610;BME280;13479;49.044;8.716;2023-01-29T17:38:24;99609.13;;;-0.78;67.73
25610;BME280;13479;49.044;8.716;2023-01-29T17:40:50;99606.66;;;-0.82;68.01
25610;BME280;13479;49.044;8.716;2023-01-29T17:43:17;99615.38;;;-0.83;68.01
25610;BME280;13479;49.044;8.716;2023-01-29T17:45:42;99622.50;;;-0.88;68.40
25610;BME280;13479;49.044;8.716;2023-01-29T17:50:49;99630.53;;;-0.96;68.85
25610;BME280;13479;49.044;8.716;2023-01-29T17:53:15;99639.16;;;-0.94;69.01
25610;BME280;13479;49.044;8.716;2023-01-29T17:55:40;99648.63;;;-0.91;69.07
25610;BME280;13479;49.044;8.716;2023-01-29T17:58:14;99654.94;;;-0.69;68.89
25610;BME280;13479;49.044;8.716;2023-01-29T18:00:41;99683.31;;;-0.58;68.57
25610;BME280;13479;49.044;8.716;2023-01-29T18:03:06;99679.91;;;-0.60;69.00
25610;BME280;13479;49.044;8.716;2023-01-29T18:05:32;99665.50;;;-0.73;69.41
25610;BME280;13479;49.044;8.716;2023-01-29T18:07:57;99648.91;;;-0.71;69.49
25610;BME280;13479;49.044;8.716;2023-01-29T18:10:23;99652.25;;;-0.66;69.69
25610;BME280;13479;49.044;8.716;2023-01-29T18:12:48;99670.03;;;-0.50;69.46
25610;BME280;13479;49.044;8.716;2023-01-29T18:15:14;99687.91;;;-0.38;68.76
25610;BME280;13479;49.044;8.716;2023-01-29T18:17:39;99726.22;;;-0.38;68.29
25610;BME280;13479;49.044;8.716;2023-01-29T18:20:20;99718.69;;;-0.49;68.44
25610;BME280;13479;49.044;8.716;2023-01-29T18:22:46;99707.47;;;-0.51;68.70
25610;BME280;13479;49.044;8.716;2023-01-29T18:25:12;99694.44;;;-0.51;68.47
25610;BME280;13479;49.044;8.716;2023-01-29T18:27:37;99696.50;;;-0.63;68.97
25610;BME280;13479;49.044;8.716;2023-01-29T18:30:03;99683.75;;;-0.73;69.06
25610;BME280;13479;49.044;8.716;2023-01-29T18:32:29;99671.00;;;-0.83;69.49
25610;BME280;13479;49.044;8.716;2023-01-29T18:34:54;99668.31;;;-0.81;69.52
25610;BME280;13479;49.044;8.716;2023-01-29T18:37:19;99675.69;;;-0.96;69.69
25610;BME280;13479;49.044;8.716;2023-01-29T18:39:45;99674.97;;;-1.01;69.97
25610;BME280;13479;49.044;8.716;2023-01-29T18:42:10;99674.34;;;-1.09;70.26
25610;BME280;13479;49.044;8.716;2023-01-29T18:44:35;99675.22;;;-1.10;70.32
25610;BME280;13479;49.044;8.716;2023-01-29T18:47:00;99696.09;;;-1.10;70.33
25610;BME280;13479;49.044;8.716;2023-01-29T18:49:26;99696.97;;;-1.11;70.46
25610;BME280;13479;49.044;8.716;2023-01-29T18:51:51;99700.41;;;-1.09;71.00
25610;BME280;13479;49.044;8.716;2023-01-29T18:56:45;99712.81;;;-1.19;71.19
25610;BME280;13479;49.044;8.716;2023-01-29T18:59:11;99718.97;;;-1.21;70.91
25610;BME280;13479;49.044;8.716;2023-01-29T19:01:36;99722.53;;;-1.26;70.88
25610;BME280;13479;49.044;8.716;2023-01-29T19:04:01;99739.16;;;-1.30;70.60
25610;BME280;13479;49.044;8.716;2023-01-29T19:06:26;99739.25;;;-1.33;70.75
25610;BME280;13479;49.044;8.716;2023-01-29T19:08:52;99741.91;;;-1.36;70.91
25610;BME280;13479;49.044;8.716;2023-01-29T19:11:17;99735.75;;;-1.32;71.33
25610;BME280;13479;49.044;8.716;2023-01-29T19:13:42;99747.06;;;-1.34;70.98
25610;BME280;13479;49.044;8.716;2023-01-29T19:16:09;99749.69;;;-1.34;70.85
25610;BME280;13479;49.044;8.716;2023-01-29T19:18:36;99754.13;;;-1.38;70.54
25610;BME280;13479;49.044;8.716;2023-01-29T19:21:05;99768.28;;;-1.48;70.56
25610;BME280;13479;49.044;8.716;2023-01-29T19:23:31;99757.06;;;-1.52;70.92
25610;BME280;13479;49.044;8.716;2023-01-29T19:25:56;99745.88;;;-1.56;70.65
25610;BME280;13479;49.044;8.716;2023-01-29T19:28:22;99738.78;;;-1.50;70.96
25610;BME280;13479;49.044;8.716;2023-01-29T19:30:47;99734.56;;;-1.54;70.62
25610;BME280;13479;49.044;8.716;2023-01-29T19:33:12;99733.69;;;-1.53;71.09
25610;BME280;13479;49.044;8.716;2023-01-29T19:35:37;99726.75;;;-1.54;71.40
25610;BME280;13479;49.044;8.716;2023-01-29T19:38:03;99715.66;;;-1.63;71.36
25610;BME280;13479;49.044;8.716;2023-01-29T19:40:28;99706.16;;;-1.64;71.69